Terminal Aerodrome Forecast
Issued by NWS

Home | Current Version | Previous Version | Text Only | Print | Product List | Glossary On
Versions: 1 2 3 4 5 6 7 8 9 10 11 12 13 14 15 16 17 18 19 20
000
FTUS41 KGYX 281217 AAA
TAFHIE
TAF AMD
KHIE 281217Z 2812/2912 00000KT 1SM -SN BR OVC025
     FM281400 VRB03KT P6SM -SHSN BKN025
     FM281800 VRB03KT P6SM BKN040
     FM282300 00000KT P6SM SCT050=

USA.gov is the U.S. government's official web portal to all federal, state and local government web resources and services.